createdAt,value
2022-12-01T00:01:20.314Z,-9.09
2022-12-01T00:03:47.312Z,-9.17
2022-12-01T00:06:16.993Z,-9.04
2022-12-01T00:08:45.133Z,-9.03
2022-12-01T00:11:12.226Z,-8.93
2022-12-01T00:13:39.135Z,-9.12
2022-12-01T00:16:11.245Z,-9.26
2022-12-01T00:18:38.213Z,-8.96
2022-12-01T00:21:05.256Z,-8.91
2022-12-01T00:23:32.218Z,-8.93
2022-12-01T00:26:03.955Z,-8.85
2022-12-01T00:28:31.028Z,-8.75
2022-12-01T00:30:58.072Z,-8.77
2022-12-01T00:33:24.959Z,-8.71
2022-12-01T00:35:58.510Z,-8.82
2022-12-01T00:38:25.924Z,-8.62
2022-12-01T00:40:52.796Z,-8.54
2022-12-01T00:43:19.856Z,-8.39
2022-12-01T00:45:46.954Z,-8.36
2022-12-01T00:48:13.862Z,-8.49
2022-12-01T00:50:41.476Z,-8.36
2022-12-01T00:53:08.535Z,-8.36
2022-12-01T00:55:36.273Z,-8.51
2022-12-01T00:58:03.267Z,-8.47
2022-12-01T01:00:30.163Z,-8.36
2022-12-01T01:02:57.097Z,-8.38
2022-12-01T01:05:24.026Z,-8.47
2022-12-01T01:07:50.955Z,-8.54
2022-12-01T01:10:17.919Z,-8.63
2022-12-01T01:12:44.902Z,-8.70
2022-12-01T01:15:11.730Z,-8.88
2022-12-01T01:17:38.662Z,-8.75
2022-12-01T01:20:06.146Z,-8.95
2022-12-01T01:22:35.577Z,-8.95
2022-12-01T01:25:02.369Z,-8.89
2022-12-01T01:27:29.261Z,-9.25
2022-12-01T01:29:56.102Z,-9.14
2022-12-01T01:32:23.034Z,-9.34
2022-12-01T01:34:49.930Z,-9.25
2022-12-01T01:37:16.764Z,-9.17
2022-12-01T01:39:43.596Z,-9.37
2022-12-01T01:42:14.687Z,-9.44
2022-12-01T01:44:58.795Z,-9.29
2022-12-01T01:47:36.189Z,-9.25
2022-12-01T01:50:09.538Z,-9.12
2022-12-01T01:52:40.384Z,-9.07
2022-12-01T01:55:07.965Z,-9.12
2022-12-01T01:57:36.039Z,-9.14
2022-12-01T02:00:10.947Z,-9.08
2022-12-01T02:02:43.845Z,-9.14
2022-12-01T02:05:24.331Z,-9.00
2022-12-01T02:07:53.591Z,-8.93
2022-12-01T02:10:24.431Z,-9.23
2022-12-01T02:13:37.282Z,-9.26
2022-12-01T02:16:14.427Z,-9.59
2022-12-01T02:18:52.330Z,-9.42
2022-12-01T02:21:37.236Z,-9.26
2022-12-01T02:24:41.949Z,-9.17
2022-12-01T02:27:36.140Z,-9.38
2022-12-01T02:30:16.583Z,-9.39
2022-12-01T02:32:46.778Z,-9.42
2022-12-01T02:35:36.318Z,-9.23
2022-12-01T02:38:44.963Z,-9.22
2022-12-01T02:41:29.387Z,-9.23
2022-12-01T02:44:15.697Z,-9.16
2022-12-01T02:46:49.684Z,-9.82
2022-12-01T02:49:22.769Z,-9.95
2022-12-01T02:51:52.529Z,-9.64
2022-12-01T02:54:31.363Z,-9.64
2022-12-01T02:56:58.329Z,-9.93
2022-12-01T02:59:25.685Z,-9.57
2022-12-01T03:02:33.097Z,-9.88
2022-12-01T03:05:07.889Z,-9.94
2022-12-01T03:07:43.303Z,-9.99
2022-12-01T03:10:25.475Z,-9.91
2022-12-01T03:13:19.905Z,-9.93
2022-12-01T03:16:03.557Z,-9.85
2022-12-01T03:18:39.371Z,-9.72
2022-12-01T03:21:36.177Z,-9.94
2022-12-01T03:24:11.436Z,-9.75
2022-12-01T03:26:42.134Z,-9.86
2022-12-01T03:29:15.788Z,-9.89
2022-12-01T03:31:49.056Z,-9.80
2022-12-01T03:34:25.983Z,-9.78
2022-12-01T03:36:59.164Z,-9.69
2022-12-01T03:39:31.023Z,-9.81
2022-12-01T03:42:15.783Z,-9.76
2022-12-01T03:45:07.098Z,-9.59
2022-12-01T03:47:35.020Z,-9.64
2022-12-01T03:50:04.278Z,-9.54
2022-12-01T03:53:06.564Z,-9.49
2022-12-01T03:55:41.074Z,-9.67
2022-12-01T03:58:14.303Z,-9.51
2022-12-01T04:00:42.433Z,-9.40
2022-12-01T04:03:18.100Z,-9.50
2022-12-01T04:05:45.267Z,-9.67
2022-12-01T04:08:12.350Z,-9.63
2022-12-01T04:10:39.318Z,-9.73
2022-12-01T04:13:06.277Z,-10.10
2022-12-01T04:15:33.222Z,-10.20
2022-12-01T04:18:00.090Z,-9.96
2022-12-01T04:20:27.006Z,-10.10
2022-12-01T04:22:53.791Z,-9.83
2022-12-01T04:25:20.770Z,-9.85
2022-12-01T04:27:47.563Z,-9.87
2022-12-01T04:30:14.696Z,-9.91
2022-12-01T04:32:43.385Z,-9.70
2022-12-01T04:35:12.314Z,-9.99
2022-12-01T04:37:39.965Z,-9.81
2022-12-01T04:40:08.549Z,-9.64
2022-12-01T04:42:35.592Z,-9.53
2022-12-01T04:45:02.638Z,-9.65
2022-12-01T04:47:29.482Z,-9.95
2022-12-01T04:49:56.366Z,-9.98
2022-12-01T04:52:23.225Z,-9.86
2022-12-01T04:54:50.185Z,-9.83
2022-12-01T04:57:17.080Z,-9.89
2022-12-01T04:59:43.970Z,-10.01
2022-12-01T05:02:10.878Z,-9.83
2022-12-01T05:04:37.991Z,-10.28
2022-12-01T05:07:04.820Z,-10.44
2022-12-01T05:09:31.868Z,-10.30
2022-12-01T05:11:58.860Z,-10.30
2022-12-01T05:14:25.784Z,-10.08
2022-12-01T05:16:52.651Z,-10.60
2022-12-01T05:19:19.498Z,-10.82
2022-12-01T05:21:48.815Z,-10.85
2022-12-01T05:24:16.813Z,-10.64
2022-12-01T05:26:44.816Z,-10.76
2022-12-01T05:29:12.646Z,-10.90
2022-12-01T05:31:40.021Z,-10.99
2022-12-01T05:34:07.598Z,-10.69
2022-12-01T05:36:34.721Z,-10.78
2022-12-01T05:39:01.622Z,-10.71
2022-12-01T05:41:28.476Z,-10.40
2022-12-01T05:43:55.522Z,-10.22
2022-12-01T05:46:22.523Z,-9.88
2022-12-01T05:48:49.438Z,-9.70
2022-12-01T05:51:17.790Z,-9.71
2022-12-01T05:53:45.295Z,-9.97
2022-12-01T05:56:12.491Z,-9.79
2022-12-01T05:58:39.448Z,-9.60
2022-12-01T06:01:06.664Z,-9.28
2022-12-01T06:03:33.652Z,-9.43
2022-12-01T06:06:00.537Z,-9.37
2022-12-01T06:08:27.649Z,-9.32
2022-12-01T06:10:54.586Z,-8.98
2022-12-01T06:13:21.560Z,-8.82
2022-12-01T06:16:03.551Z,-8.74
2022-12-01T06:18:32.363Z,-8.74
2022-12-01T06:20:59.219Z,-8.61
2022-12-01T06:23:30.136Z,-8.93
2022-12-01T06:25:58.285Z,-9.21
2022-12-01T06:28:25.149Z,-9.00
2022-12-01T06:30:51.988Z,-8.98
2022-12-01T06:33:18.849Z,-8.68
2022-12-01T06:35:45.748Z,-8.43
2022-12-01T06:38:12.623Z,-8.22
2022-12-01T06:40:39.498Z,-8.36
2022-12-01T06:43:06.294Z,-8.25
2022-12-01T06:45:33.239Z,-8.07
2022-12-01T06:48:00.308Z,-7.99
2022-12-01T06:50:27.210Z,-7.58
2022-12-01T06:52:54.999Z,-7.42
2022-12-01T06:55:22.237Z,-7.33
2022-12-01T06:57:49.831Z,-7.10
2022-12-01T07:00:17.384Z,-7.13
2022-12-01T07:02:44.831Z,-7.22
2022-12-01T07:05:11.924Z,-6.78
2022-12-01T07:07:39.808Z,-6.88
2022-12-01T07:10:08.852Z,-6.72
2022-12-01T07:12:35.727Z,-6.59
2022-12-01T07:15:03.150Z,-6.41
2022-12-01T07:17:30.088Z,-6.44
2022-12-01T07:19:57.452Z,-6.32
2022-12-01T07:22:29.527Z,-6.37
2022-12-01T07:24:59.364Z,-5.96
2022-12-01T07:27:29.824Z,-5.93
2022-12-01T07:29:56.753Z,-5.90
2022-12-01T07:32:23.659Z,-6.26
2022-12-01T07:34:50.706Z,-6.12
2022-12-01T07:37:17.631Z,-5.86
2022-12-01T07:39:44.557Z,-6.12
2022-12-01T07:42:11.408Z,-5.49
2022-12-01T07:44:38.339Z,-5.72
2022-12-01T07:47:05.212Z,-5.65
2022-12-01T07:49:32.145Z,-5.38
2022-12-01T07:51:59.136Z,-5.33
2022-12-01T07:54:26.031Z,-5.29
2022-12-01T07:56:53.004Z,-5.38
2022-12-01T07:59:19.894Z,-4.96
2022-12-01T08:01:46.777Z,-4.66
2022-12-01T08:04:13.780Z,-4.55
2022-12-01T08:06:40.586Z,-4.73
2022-12-01T08:09:07.580Z,-4.60
2022-12-01T08:11:34.506Z,-4.47
2022-12-01T08:14:01.693Z,-4.40
2022-12-01T08:16:28.556Z,-4.39
2022-12-01T08:18:55.515Z,-4.55
2022-12-01T08:21:24.003Z,-4.58
2022-12-01T08:23:58.355Z,-4.29
2022-12-01T08:26:26.852Z,-4.69
2022-12-01T08:28:54.188Z,-4.71
2022-12-01T08:31:25.554Z,-4.47
2022-12-01T08:33:53.591Z,-4.27
2022-12-01T08:36:21.643Z,-4.12
2022-12-01T08:38:53.967Z,-4.33
2022-12-01T08:41:21.850Z,-3.78
2022-12-01T08:44:03.982Z,-4.05
2022-12-01T08:46:35.268Z,-3.92
2022-12-01T08:49:04.936Z,-3.77
2022-12-01T08:51:32.341Z,-4.39
2022-12-01T08:54:00.644Z,-4.54
2022-12-01T08:56:36.266Z,-3.85
2022-12-01T08:59:04.189Z,-3.69
2022-12-01T09:01:31.453Z,-3.65
2022-12-01T09:04:00.125Z,-3.85
2022-12-01T09:06:27.002Z,-3.99
2022-12-01T09:08:54.030Z,-4.31
2022-12-01T09:11:20.816Z,-4.18
2022-12-01T09:13:54.300Z,-4.22
2022-12-01T09:16:22.190Z,-4.03
2022-12-01T09:18:49.280Z,-4.31
2022-12-01T09:21:24.605Z,-4.37
2022-12-01T09:23:52.511Z,-4.20
2022-12-01T09:26:20.123Z,-4.35
2022-12-01T09:28:48.877Z,-4.32
2022-12-01T09:31:17.334Z,-4.72
2022-12-01T09:33:44.781Z,-4.63
2022-12-01T09:36:12.044Z,-4.78
2022-12-01T09:38:39.873Z,-4.79
2022-12-01T09:41:18.732Z,-4.53
2022-12-01T09:44:00.394Z,-5.05
2022-12-01T09:46:37.412Z,-4.56
2022-12-01T09:49:06.418Z,-4.50
2022-12-01T09:51:34.368Z,-4.73
2022-12-01T09:54:03.011Z,-4.45
2022-12-01T09:56:36.797Z,-4.10
2022-12-01T09:59:06.729Z,-4.06
2022-12-01T10:01:44.542Z,-3.75
2022-12-01T10:04:22.875Z,-3.46
2022-12-01T10:06:59.673Z,-3.30
2022-12-01T10:09:46.184Z,-3.10
2022-12-01T10:12:18.426Z,-3.28
2022-12-01T10:14:47.718Z,-3.10
2022-12-01T10:17:36.122Z,-2.97
2022-12-01T10:20:23.830Z,-3.33
2022-12-01T10:23:17.262Z,-2.69
2022-12-01T10:26:09.136Z,-2.73
2022-12-01T10:29:03.923Z,-3.06
2022-12-01T10:31:45.142Z,-3.44
2022-12-01T10:34:19.999Z,-2.87
2022-12-01T10:36:47.331Z,-2.41
2022-12-01T10:39:23.980Z,-2.69
2022-12-01T10:41:51.766Z,-2.54
2022-12-01T10:44:19.408Z,-2.41
2022-12-01T10:46:56.621Z,-2.46
2022-12-01T10:49:37.653Z,-2.44
2022-12-01T10:52:05.491Z,-2.30
2022-12-01T10:54:40.273Z,-2.31
2022-12-01T10:57:15.807Z,-1.94
2022-12-01T10:59:55.709Z,-1.88
2022-12-01T11:02:26.670Z,-2.00
2022-12-01T11:04:57.932Z,-1.94
2022-12-01T11:07:34.877Z,-2.05
2022-12-01T11:10:26.905Z,-1.85
2022-12-01T11:12:58.933Z,-1.72
2022-12-01T11:15:40.790Z,-1.79
2022-12-01T11:18:35.218Z,-1.68
2022-12-01T11:21:14.286Z,-1.49
2022-12-01T11:23:52.370Z,-1.74
2022-12-01T11:26:25.169Z,-1.92
2022-12-01T11:29:05.468Z,-1.61
2022-12-01T11:31:50.582Z,-1.75
2022-12-01T11:34:30.132Z,-1.45
2022-12-01T11:37:03.205Z,-1.54
2022-12-01T11:39:32.543Z,-1.35
2022-12-01T11:42:17.642Z,-1.94
2022-12-01T11:45:11.768Z,-1.32
2022-12-01T11:47:59.310Z,-1.32
2022-12-01T11:50:29.384Z,-1.85
2022-12-01T11:52:56.333Z,-1.48
2022-12-01T11:55:26.417Z,-1.88
2022-12-01T11:57:56.411Z,-1.82
2022-12-01T12:00:28.996Z,-1.71
2022-12-01T12:03:15.075Z,-1.73
2022-12-01T12:06:01.379Z,-1.73
2022-12-01T12:09:04.653Z,-1.63
2022-12-01T12:11:49.756Z,-1.99
2022-12-01T12:14:48.709Z,-1.98
2022-12-01T12:17:18.527Z,-2.17
2022-12-01T12:20:27.955Z,-2.11
2022-12-01T12:23:03.696Z,-2.26
2022-12-01T12:25:41.738Z,-2.38
2022-12-01T12:28:35.861Z,-2.44
2022-12-01T12:31:19.485Z,-2.54
2022-12-01T12:34:13.458Z,-2.62
2022-12-01T12:36:52.506Z,-2.67
2022-12-01T12:39:49.621Z,-2.69
2022-12-01T12:42:54.020Z,-2.58
2022-12-01T12:45:46.345Z,-2.67
2022-12-01T12:48:29.568Z,-2.78
2022-12-01T12:50:56.428Z,-2.80
2022-12-01T12:53:28.930Z,-2.82
2022-12-01T12:56:05.153Z,-3.02
2022-12-01T12:58:43.465Z,-2.98
2022-12-01T13:01:21.222Z,-3.05
2022-12-01T13:04:13.664Z,-3.02
2022-12-01T13:06:49.177Z,-3.02
2022-12-01T13:09:35.852Z,-3.01
2022-12-01T13:12:19.663Z,-3.32
2022-12-01T13:14:55.175Z,-3.68
2022-12-01T13:17:35.841Z,-3.55
2022-12-01T13:20:04.392Z,-3.41
2022-12-01T13:22:35.463Z,-3.68
2022-12-01T13:25:05.724Z,-3.82
2022-12-01T13:27:37.161Z,-3.71
2022-12-01T13:30:04.718Z,-3.93
2022-12-01T13:32:37.277Z,-3.92
2022-12-01T13:35:27.484Z,-3.80
2022-12-01T13:38:16.876Z,-3.73
2022-12-01T13:40:43.898Z,-3.78
2022-12-01T13:43:22.763Z,-3.75
2022-12-01T13:45:50.203Z,-3.79
2022-12-01T13:48:42.014Z,-4.21
2022-12-01T13:51:08.996Z,-4.40
2022-12-01T13:53:38.029Z,-4.34
2022-12-01T13:56:17.114Z,-4.36
2022-12-01T13:58:47.842Z,-4.34
2022-12-01T14:01:21.268Z,-4.28
2022-12-01T14:04:15.973Z,-4.38
2022-12-01T14:06:44.117Z,-4.63
2022-12-01T14:09:32.424Z,-4.66
2022-12-01T14:12:06.609Z,-4.57
2022-12-01T14:14:39.098Z,-4.70
2022-12-01T14:17:07.725Z,-4.58
2022-12-01T14:19:37.050Z,-4.65
2022-12-01T14:22:15.806Z,-4.52
2022-12-01T14:24:52.013Z,-4.59
2022-12-01T14:27:43.044Z,-4.80
2022-12-01T14:30:40.974Z,-4.71
2022-12-01T14:33:38.989Z,-4.62
2022-12-01T14:36:25.150Z,-4.80
2022-12-01T14:38:58.146Z,-4.74
2022-12-01T14:41:36.553Z,-4.90
2022-12-01T14:44:23.225Z,-5.07
2022-12-01T14:47:04.700Z,-4.97
2022-12-01T14:49:43.080Z,-4.61
2022-12-01T14:52:29.428Z,-4.51
2022-12-01T14:54:59.646Z,-4.68
2022-12-01T14:57:37.713Z,-4.62
2022-12-01T15:00:07.464Z,-5.13
2022-12-01T15:02:39.581Z,-4.64
2022-12-01T15:05:17.708Z,-4.43
2022-12-01T15:07:47.612Z,-4.42
2022-12-01T15:10:29.447Z,-4.53
2022-12-01T15:12:56.488Z,-4.45
2022-12-01T15:15:26.223Z,-4.67
2022-12-01T15:17:54.499Z,-4.60
2022-12-01T15:20:43.566Z,-4.41
2022-12-01T15:23:16.514Z,-4.38
2022-12-01T15:25:45.666Z,-4.45
2022-12-01T15:28:15.817Z,-4.51
2022-12-01T15:30:45.494Z,-4.46
2022-12-01T15:33:28.324Z,-4.48
2022-12-01T15:36:00.479Z,-4.52
2022-12-01T15:38:34.238Z,-4.50
2022-12-01T15:43:58.971Z,-4.71
2022-12-01T15:46:34.397Z,-4.63
2022-12-01T15:49:16.063Z,-4.68
2022-12-01T15:51:43.594Z,-4.81
2022-12-01T15:54:30.954Z,-4.88
2022-12-01T15:56:59.436Z,-5.02
2022-12-01T15:59:31.316Z,-5.01
2022-12-01T16:01:59.037Z,-5.01
2022-12-01T16:04:29.437Z,-5.00
2022-12-01T16:07:05.608Z,-4.90
2022-12-01T16:09:38.976Z,-4.92
2022-12-01T16:12:18.145Z,-5.01
2022-12-01T16:14:53.008Z,-5.05
2022-12-01T16:17:20.691Z,-4.97
2022-12-01T16:19:47.572Z,-5.06
2022-12-01T16:22:20.327Z,-5.06
2022-12-01T16:24:53.716Z,-5.07
2022-12-01T16:27:29.499Z,-4.89
2022-12-01T16:30:06.620Z,-5.19
2022-12-01T16:32:41.086Z,-5.43
2022-12-01T16:35:26.648Z,-5.14
2022-12-01T16:37:54.912Z,-5.28
2022-12-01T16:40:21.860Z,-5.15
2022-12-01T16:42:49.128Z,-5.28
2022-12-01T16:45:20.969Z,-5.51
2022-12-01T16:47:52.346Z,-5.72
2022-12-01T16:50:22.597Z,-5.51
2022-12-01T16:52:54.628Z,-5.46
2022-12-01T16:55:56.222Z,-5.51
2022-12-01T16:58:24.621Z,-5.78
2022-12-01T17:00:52.166Z,-5.54
2022-12-01T17:03:22.386Z,-5.42
2022-12-01T17:05:50.004Z,-5.51
2022-12-01T17:08:17.483Z,-5.45
2022-12-01T17:10:46.285Z,-5.50
2022-12-01T17:13:14.114Z,-5.51
2022-12-01T17:15:48.652Z,-5.38
2022-12-01T17:18:17.486Z,-5.63
2022-12-01T17:20:55.904Z,-5.68
2022-12-01T17:23:22.901Z,-5.50
2022-12-01T17:25:49.928Z,-5.75
2022-12-01T17:28:16.872Z,-5.65
2022-12-01T17:30:43.832Z,-5.55
2022-12-01T17:33:10.791Z,-5.60
2022-12-01T17:35:40.809Z,-5.37
2022-12-01T17:38:08.264Z,-5.47
2022-12-01T17:40:35.663Z,-5.45
2022-12-01T17:43:02.675Z,-5.57
2022-12-01T17:45:29.824Z,-5.60
2022-12-01T17:47:56.754Z,-5.66
2022-12-01T17:50:24.264Z,-5.74
2022-12-01T17:52:51.228Z,-5.73
2022-12-01T17:55:18.412Z,-5.64
2022-12-01T17:57:45.415Z,-5.64
2022-12-01T18:00:13.158Z,-5.66
2022-12-01T18:02:40.238Z,-5.68
2022-12-01T18:05:07.843Z,-5.62
2022-12-01T18:07:34.911Z,-5.67
2022-12-01T18:10:01.993Z,-5.78
2022-12-01T18:12:28.986Z,-6.01
2022-12-01T18:14:55.931Z,-5.91
2022-12-01T18:17:23.178Z,-5.61
2022-12-01T18:19:50.093Z,-5.74
2022-12-01T18:22:17.567Z,-5.90
2022-12-01T18:24:45.858Z,-6.04
2022-12-01T18:27:12.967Z,-6.14
2022-12-01T18:29:41.541Z,-5.95
2022-12-01T18:32:08.717Z,-6.13
2022-12-01T18:34:35.687Z,-6.06
2022-12-01T18:37:03.350Z,-5.84
2022-12-01T18:39:30.282Z,-5.75
2022-12-01T18:41:57.732Z,-5.76
2022-12-01T18:44:24.656Z,-5.68
2022-12-01T18:46:51.677Z,-5.65
2022-12-01T18:49:19.081Z,-5.71
2022-12-01T18:51:46.236Z,-5.60
2022-12-01T18:54:14.831Z,-5.65
2022-12-01T18:56:42.510Z,-5.46
2022-12-01T18:59:11.862Z,-5.52
2022-12-01T19:01:43.841Z,-5.65
2022-12-01T19:04:11.801Z,-5.56
2022-12-01T19:06:40.296Z,-5.48
2022-12-01T19:09:10.797Z,-5.44
2022-12-01T19:11:40.645Z,-5.39
2022-12-01T19:14:12.135Z,-5.34
2022-12-01T19:16:40.145Z,-5.25
2022-12-01T19:19:07.250Z,-5.20
2022-12-01T19:21:34.378Z,-5.24
2022-12-01T19:24:01.391Z,-5.29
2022-12-01T19:26:28.391Z,-5.45
2022-12-01T19:28:55.352Z,-5.48
2022-12-01T19:31:24.207Z,-5.31
2022-12-01T19:33:53.195Z,-5.44
2022-12-01T19:36:23.288Z,-5.71
2022-12-01T19:38:50.892Z,-5.57
2022-12-01T19:41:18.750Z,-5.57
2022-12-01T19:43:45.908Z,-5.56
2022-12-01T19:46:19.342Z,-5.77
2022-12-01T19:48:47.803Z,-5.69
2022-12-01T19:51:26.296Z,-5.50
2022-12-01T19:53:54.483Z,-5.45
2022-12-01T19:56:22.370Z,-5.38
2022-12-01T19:58:49.779Z,-5.55
2022-12-01T20:01:18.452Z,-5.61
2022-12-01T20:03:50.722Z,-5.55
2022-12-01T20:06:23.641Z,-5.85
2022-12-01T20:08:51.905Z,-5.59
2022-12-01T20:11:19.247Z,-5.58
2022-12-01T20:13:47.566Z,-5.41
2022-12-01T20:16:18.099Z,-5.25
2022-12-01T20:18:45.454Z,-5.17
2022-12-01T20:21:22.580Z,-5.25
2022-12-01T20:24:18.520Z,-5.20
2022-12-01T20:26:53.624Z,-5.31
2022-12-01T20:29:26.609Z,-5.30
2022-12-01T20:31:55.803Z,-5.16
2022-12-01T20:34:26.446Z,-4.99
2022-12-01T20:36:53.816Z,-5.00
2022-12-01T20:39:21.303Z,-5.22
2022-12-01T20:41:48.319Z,-4.98
2022-12-01T20:44:16.768Z,-4.91
2022-12-01T20:46:44.652Z,-4.98
2022-12-01T20:49:12.573Z,-5.11
2022-12-01T20:51:39.543Z,-5.17
2022-12-01T20:56:56.004Z,-5.30
2022-12-01T20:59:23.156Z,-5.28
2022-12-01T21:01:50.174Z,-5.13
2022-12-01T21:04:17.521Z,-5.21
2022-12-01T21:06:44.608Z,-5.49
2022-12-01T21:09:11.816Z,-5.32
2022-12-01T21:11:47.444Z,-5.63
2022-12-01T21:14:35.324Z,-6.22
2022-12-01T21:17:28.286Z,-6.19
2022-12-01T21:20:03.077Z,-6.19
2022-12-01T21:22:30.781Z,-6.38
2022-12-01T21:25:10.099Z,-6.31
2022-12-01T21:27:37.235Z,-6.25
2022-12-01T21:30:14.574Z,-6.27
2022-12-01T21:32:44.132Z,-6.35
2022-12-01T21:35:19.048Z,-6.42
2022-12-01T21:37:47.412Z,-6.19
2022-12-01T21:40:23.455Z,-5.94
2022-12-01T21:42:50.841Z,-5.76
2022-12-01T21:45:31.412Z,-5.66
2022-12-01T21:48:14.055Z,-5.73
2022-12-01T21:50:41.098Z,-6.08
2022-12-01T21:53:16.492Z,-6.03
2022-12-01T21:55:45.373Z,-6.24
2022-12-01T21:58:37.401Z,-6.13
2022-12-01T22:01:16.728Z,-5.87
2022-12-01T22:03:45.574Z,-5.95
2022-12-01T22:06:31.562Z,-5.67
2022-12-01T22:09:12.679Z,-5.82
2022-12-01T22:11:43.214Z,-5.74
2022-12-01T22:14:20.998Z,-5.78
2022-12-01T22:17:01.204Z,-5.85
2022-12-01T22:19:31.891Z,-5.62
2022-12-01T22:22:10.896Z,-5.74
2022-12-01T22:24:45.306Z,-5.65
2022-12-01T22:27:27.520Z,-5.58
2022-12-01T22:29:59.243Z,-5.46
2022-12-01T22:32:36.318Z,-5.66
2022-12-01T22:35:26.580Z,-5.38
2022-12-01T22:38:19.956Z,-5.33
2022-12-01T22:41:02.407Z,-5.53
2022-12-01T22:43:39.151Z,-5.59
2022-12-01T22:46:16.838Z,-5.70
2022-12-01T22:49:06.805Z,-5.59
2022-12-01T22:52:07.181Z,-5.49
2022-12-01T22:54:46.665Z,-5.53
2022-12-01T22:57:34.109Z,-5.67
2022-12-01T23:00:20.553Z,-5.64
2022-12-01T23:02:52.974Z,-5.95
2022-12-01T23:05:30.142Z,-6.10
2022-12-01T23:07:57.528Z,-6.02
2022-12-01T23:10:35.044Z,-5.90
2022-12-01T23:13:18.678Z,-5.94
2022-12-01T23:15:47.580Z,-6.02
2022-12-01T23:18:30.950Z,-6.53
2022-12-01T23:21:00.173Z,-6.75
2022-12-01T23:23:35.868Z,-6.89
2022-12-01T23:26:07.162Z,-6.79
2022-12-01T23:28:36.977Z,-6.89
2022-12-01T23:31:03.907Z,-6.77
2022-12-01T23:33:35.201Z,-6.76
2022-12-01T23:36:03.989Z,-6.89
2022-12-01T23:38:36.727Z,-7.20
2022-12-01T23:41:10.681Z,-7.23
2022-12-01T23:43:44.272Z,-6.84
2022-12-01T23:46:20.572Z,-6.83
2022-12-01T23:48:51.665Z,-6.91
2022-12-01T23:51:21.645Z,-6.62
2022-12-01T23:53:49.172Z,-6.47
2022-12-01T23:56:25.240Z,-6.80
2022-12-01T23:58:54.460Z,-7.24
